Time;durP1;ratioP1;P1;durP2;ratioP2;P2;SDS_P1;SDS_P2;PMS_P1;PMS_P2;Temp;Humidity;BMP_temperature;BMP_pressure;BME280_temperature;BME280_humidity;BME280_pressure;Samples;Min_cycle;Max_cycle;Signal;HPM_P1;HPM_P2
2021/08/12 00:00:10;;;;;;;9.58;5.45;;;;;;;21.38;64.62;101260.22;1791199;79;27432;-67
2021/08/12 00:02:42;;;;;;;16.73;6.22;;;;;;;21.43;64.41;101261.83;1781329;80;26393;-67
2021/08/12 00:05:15;;;;;;;8.20;4.80;;;;;;;21.46;64.34;101265.55;1823495;78;25765;-65
2021/08/12 00:07:42;;;;;;;11.15;5.42;;;;;;;21.45;64.34;101263.86;1823490;78;25782;-65
2021/08/12 00:10:19;;;;;;;19.05;5.47;;;;;;;21.43;64.34;101262.66;1823410;78;25709;-65
2021/08/12 00:12:45;;;;;;;14.38;5.08;;;;;;;21.44;64.31;101262.16;1799360;78;28042;-65
2021/08/12 00:15:12;;;;;;;11.20;5.47;;;;;;;21.41;64.35;101264.78;1761752;79;25952;-66
2021/08/12 00:17:44;;;;;;;11.80;5.42;;;;;;;21.41;64.39;101260.67;1793669;79;25750;-67
2021/08/12 00:20:17;;;;;;;11.10;5.17;;;;;;;21.37;64.43;101270.30;1788758;79;26677;-64
2021/08/12 00:22:44;;;;;;;13.05;4.80;;;;;;;21.36;64.33;101265.86;1790999;78;25821;-64
2021/08/12 00:25:13;;;;;;;9.05;5.70;;;;;;;21.34;64.40;101272.59;1788152;80;27182;-64
2021/08/12 00:27:41;;;;;;;10.88;5.42;;;;;;;21.26;64.64;101270.31;1787993;80;26432;-64
2021/08/12 00:30:10;;;;;;;11.85;5.50;;;;;;;21.23;64.48;101280.80;1788047;78;25769;-64
2021/08/12 00:32:36;;;;;;;11.73;5.15;;;;;;;21.23;64.60;101285.73;1801042;78;25805;-64
2021/08/12 00:35:06;;;;;;;14.90;5.67;;;;;;;21.27;64.46;101283.45;1807858;77;25896;-64
2021/08/12 00:37:33;;;;;;;12.45;5.62;;;;;;;21.35;64.27;101289.33;1802779;77;27614;-64
2021/08/12 00:40:01;;;;;;;12.35;5.35;;;;;;;21.35;64.17;101297.01;1793598;79;25867;-65
2021/08/12 00:42:32;;;;;;;14.60;5.15;;;;;;;21.31;64.51;101294.35;1825337;78;25758;-68
2021/08/12 00:45:01;;;;;;;9.85;5.25;;;;;;;21.21;64.67;101293.82;1816437;78;25813;-64
2021/08/12 00:47:29;;;;;;;9.20;5.30;;;;;;;21.14;64.75;101306.58;1788020;78;25981;-64
2021/08/12 00:49:56;;;;;;;12.23;5.45;;;;;;;21.06;65.17;101303.44;1784086;80;27423;-63
2021/08/12 00:52:24;;;;;;;10.43;5.72;;;;;;;21.08;65.10;101302.73;1781616;78;25743;-64
2021/08/12 00:54:54;;;;;;;12.58;5.05;;;;;;;21.13;65.15;101301.62;1824820;78;25804;-64
2021/08/12 00:57:24;;;;;;;7.62;4.72;;;;;;;21.17;65.09;101297.47;1824698;78;25799;-63
2021/08/12 00:59:53;;;;;;;10.40;5.42;;;;;;;21.24;65.25;101299.75;1824917;78;26296;-63
2021/08/12 01:02:20;;;;;;;12.53;5.87;;;;;;;21.26;64.89;101300.91;1807107;78;28267;-64
2021/08/12 01:04:51;;;;;;;14.50;5.30;;;;;;;21.30;64.88;101304.10;1814992;78;25805;-64
2021/08/12 01:07:32;;;;;;;8.05;5.08;;;;;;;21.33;64.71;101305.09;1822764;78;25784;-65
2021/08/12 01:10:36;;;;;;;10.48;5.40;;;;;;;21.23;64.64;101292.58;1777511;79;25885;-66
2021/08/12 01:13:19;;;;;;;10.15;5.30;;;;;;;21.19;64.59;101297.27;1785603;79;25790;-64
2021/08/12 01:15:51;;;;;;;9.30;5.03;;;;;;;21.22;64.64;101305.92;1789418;78;27487;-63
2021/08/12 01:18:45;;;;;;;14.45;5.78;;;;;;;21.23;64.78;101308.99;1783452;79;26217;-64
2021/08/12 01:21:58;;;;;;;15.18;4.90;;;;;;;21.21;64.43;101322.55;1816927;78;26432;-65
2021/08/12 01:24:29;;;;;;;8.88;5.40;;;;;;;21.17;64.36;101319.86;1817696;78;26431;-64
2021/08/12 01:27:01;;;;;;;12.43;5.58;;;;;;;21.19;64.41;101325.48;1812723;78;25686;-64
2021/08/12 01:29:46;;;;;;;14.30;5.53;;;;;;;21.23;64.25;101330.05;1767311;79;27019;-64
2021/08/12 01:32:25;;;;;;;16.10;5.90;;;;;;;21.28;64.09;101332.20;1797756;79;25684;-64
2021/08/12 01:35:08;;;;;;;9.90;5.03;;;;;;;21.32;64.00;101334.86;1797701;79;25730;-64
2021/08/12 01:37:42;;;;;;;10.08;5.50;;;;;;;21.32;63.92;101330.75;1797904;79;25782;-65
2021/08/12 01:40:13;;;;;;;10.65;5.03;;;;;;;21.31;63.96;101338.13;1793101;79;25830;-64
2021/08/12 01:42:44;;;;;;;10.10;5.50;;;;;;;21.24;63.78;101331.75;1766258;79;27461;-65
2021/08/12 01:45:15;;;;;;;12.05;6.05;;;;;;;21.19;63.83;101336.93;1766419;79;25826;-65
2021/08/12 01:47:44;;;;;;;10.58;5.05;;;;;;;21.06;64.10;101337.12;1767053;79;25716;-65
2021/08/12 01:50:16;;;;;;;9.28;4.97;;;;;;;20.98;64.37;101335.84;1812322;79;26584;-64
2021/08/12 01:52:50;;;;;;;10.00;5.25;;;;;;;20.95;64.65;101337.61;1796824;78;25964;-64
2021/08/12 01:55:25;;;;;;;15.00;6.12;;;;;;;20.88;65.00;101333.95;1785298;80;28736;-64
2021/08/12 01:57:53;;;;;;;9.48;4.85;;;;;;;20.74;65.12;101339.23;1752703;81;25807;-64
2021/08/12 02:00:21;;;;;;;11.38;5.12;;;;;;;20.63;65.84;101339.67;1785626;79;25810;-64
2021/08/12 02:02:49;;;;;;;10.15;5.22;;;;;;;20.54;66.16;101341.66;1772521;80;26114;-64
2021/08/12 02:05:17;;;;;;;16.27;5.03;;;;;;;20.42;66.51;101339.05;1818113;78;26405;-64
2021/08/12 02:07:47;;;;;;;14.25;5.95;;;;;;;20.31;67.06;101341.75;1817511;78;27471;-64
2021/08/12 02:10:16;;;;;;;13.55;5.45;;;;;;;20.24;67.52;101340.80;1817969;78;25911;-64
2021/08/12 02:12:44;;;;;;;9.23;5.45;;;;;;;20.21;67.40;101337.06;1814248;78;26643;-63
2021/08/12 02:15:13;;;;;;;12.13;5.42;;;;;;;20.14;67.73;101346.02;1815529;78;25744;-64
2021/08/12 02:17:41;;;;;;;13.28;5.47;;;;;;;20.12;67.94;101343.14;1788993;79;25747;-64
2021/08/12 02:20:14;;;;;;;16.42;5.60;;;;;;;20.14;68.04;101339.19;1778766;80;27510;-64
2021/08/12 02:23:15;;;;;;;16.77;6.17;;;;;;;20.16;68.05;101341.72;1797252;79;26202;-64
2021/08/12 02:25:55;;;;;;;12.88;6.00;;;;;;;20.13;68.12;101339.34;1811311;79;25719;-64
2021/08/12 02:28:25;;;;;;;16.45;5.55;;;;;;;20.11;68.26;101334.08;1810866;78;26403;-64
2021/08/12 02:30:54;;;;;;;14.03;5.30;;;;;;;20.09;68.18;101339.41;1811243;79;25742;-64
2021/08/12 02:33:28;;;;;;;9.90;5.78;;;;;;;20.13;68.19;101337.98;1807284;78;27431;-64
2021/08/12 02:35:57;;;;;;;11.30;5.53;;;;;;;20.18;67.97;101336.92;1781464;79;25787;-64
2021/08/12 02:38:25;;;;;;;9.40;5.87;;;;;;;20.21;67.96;101334.33;1808551;79;25570;-64
2021/08/12 02:40:57;;;;;;;11.68;5.67;;;;;;;20.17;68.03;101341.52;1811266;79;26149;-64
2021/08/12 02:43:26;;;;;;;18.35;6.12;;;;;;;20.11;68.04;101345.01;1807342;79;25846;-64
2021/08/12 02:45:57;;;;;;;11.12;5.67;;;;;;;20.04;68.53;101362.34;1783243;79;27456;-64
2021/08/12 02:48:28;;;;;;;16.02;5.37;;;;;;;19.92;68.52;101358.67;1811356;79;25773;-64
2021/08/12 02:50:58;;;;;;;13.05;5.58;;;;;;;19.88;69.18;101355.13;1811455;79;25422;-64
2021/08/12 02:53:28;;;;;;;16.50;5.65;;;;;;;19.80;69.29;101362.33;1811338;79;25762;-64
2021/08/12 02:55:57;;;;;;;11.83;5.67;;;;;;;19.77;69.64;101371.38;1784201;79;25814;-64
2021/08/12 02:58:31;;;;;;;10.25;5.60;;;;;;;19.76;69.44;101372.44;1811545;79;27405;-64
2021/08/12 03:00:56;;;;;;;19.60;6.50;;;;;;;19.74;69.49;101376.69;1810667;79;25770;-64
2021/08/12 03:03:25;;;;;;;15.50;5.70;;;;;;;19.75;69.33;101373.46;1806150;79;25770;-64
2021/08/12 03:05:53;;;;;;;14.60;5.90;;;;;;;19.60;69.53;101349.67;1811241;79;25780;-64
2021/08/12 03:08:21;;;;;;;17.98;6.72;;;;;;;19.74;69.43;101369.03;1811291;79;25834;-63
2021/08/12 03:10:54;;;;;;;13.60;6.15;;;;;;;19.73;69.58;101374.16;1811079;79;28161;-63
2021/08/12 03:13:21;;;;;;;16.05;6.15;;;;;;;19.75;69.41;101370.20;1811466;79;25706;-63
2021/08/12 03:15:51;;;;;;;11.55;5.87;;;;;;;19.79;69.14;101377.50;1811362;79;25746;-63
2021/08/12 03:18:17;;;;;;;12.82;5.08;;;;;;;19.81;69.22;101375.45;1810830;78;26423;-64
2021/08/12 03:20:44;;;;;;;14.43;6.33;;;;;;;19.75;69.54;101380.28;1811089;79;25907;-64
2021/08/12 03:23:13;;;;;;;9.73;6.25;;;;;;;19.67;69.54;101386.14;1809742;78;28571;-64
2021/08/12 03:25:40;;;;;;;11.45;5.60;;;;;;;19.61;69.96;101386.84;1813668;79;26207;-63
2021/08/12 03:28:07;;;;;;;8.45;5.75;;;;;;;19.60;70.19;101396.59;1785010;80;25492;-63
2021/08/12 03:30:35;;;;;;;13.38;5.85;;;;;;;19.59;70.24;101398.45;1785341;80;26150;-63
2021/08/12 03:33:02;;;;;;;15.40;6.25;;;;;;;19.53;70.55;101395.09;1807506;79;25850;-63
2021/08/12 03:35:29;;;;;;;15.88;6.40;;;;;;;19.49;70.77;101396.50;1813787;79;28179;-63
2021/08/12 03:37:57;;;;;;;12.93;5.95;;;;;;;19.44;70.95;101403.86;1757646;80;25868;-64
2021/08/12 03:40:25;;;;;;;14.28;5.80;;;;;;;19.44;71.10;101401.62;1790254;80;25667;-64
2021/08/12 03:42:52;;;;;;;9.90;5.50;;;;;;;19.43;71.35;101406.25;1777074;80;26434;-63
2021/08/12 03:45:19;;;;;;;14.25;6.83;;;;;;;19.39;71.49;101411.22;1766679;81;25905;-63
2021/08/12 03:47:46;;;;;;;21.50;5.65;;;;;;;19.34;71.82;101414.98;1789964;80;28173;-63
2021/08/12 03:50:16;;;;;;;9.00;5.60;;;;;;;19.34;71.58;101407.32;1802021;78;27053;-64
2021/08/12 03:52:43;;;;;;;11.43;5.83;;;;;;;19.35;71.49;101409.02;1817601;78;25804;-64
2021/08/12 03:55:11;;;;;;;13.05;5.28;;;;;;;19.41;71.29;101415.12;1816455;78;25804;-65
2021/08/12 03:57:44;;;;;;;13.03;5.80;;;;;;;19.55;71.28;101417.07;1786706;79;25704;-64
2021/08/12 04:00:15;;;;;;;19.23;5.53;;;;;;;19.68;71.00;101417.00;1819039;78;28143;-64
2021/08/12 04:02:44;;;;;;;14.27;6.17;;;;;;;19.80;70.63;101419.66;1804326;78;25762;-64
2021/08/12 04:05:12;;;;;;;14.83;5.50;;;;;;;19.86;70.34;101420.81;1816780;79;26082;-64
2021/08/12 04:07:39;;;;;;;13.88;6.12;;;;;;;19.91;70.50;101426.60;1816601;77;25828;-65
2021/08/12 04:10:07;;;;;;;13.03;5.58;;;;;;;19.94;70.42;101430.84;1816622;78;25698;-65
2021/08/12 04:12:34;;;;;;;13.18;5.75;;;;;;;19.96;70.04;101435.08;1813662;78;27456;-64
2021/08/12 04:15:02;;;;;;;11.38;5.50;;;;;;;20.03;69.82;101430.28;1790544;80;25705;-65
2021/08/12 04:17:29;;;;;;;21.35;6.45;;;;;;;20.09;69.89;101437.73;1790236;79;25774;-65
2021/08/12 04:19:56;;;;;;;13.83;6.90;;;;;;;20.08;69.50;101436.86;1789751;80;25854;-64
2021/08/12 04:22:23;;;;;;;23.12;9.90;;;;;;;20.13;69.45;101430.85;1764271;80;25763;-64
2021/08/12 04:24:50;;;;;;;16.35;8.05;;;;;;;20.21;69.50;101432.67;1755440;80;28429;-65
2021/08/12 04:27:18;;;;;;;23.95;12.45;;;;;;;20.27;69.12;101437.39;1755490;81;25801;-64
2021/08/12 04:29:46;;;;;;;16.23;7.50;;;;;;;20.34;69.13;101437.02;1755221;81;25746;-65
2021/08/12 04:32:14;;;;;;;18.23;7.97;;;;;;;20.38;68.56;101436.12;1766836;80;25787;-64
2021/08/12 04:34:41;;;;;;;18.82;7.15;;;;;;;20.40;68.41;101436.77;1813630;78;25469;-64
2021/08/12 04:37:07;;;;;;;16.12;5.58;;;;;;;20.46;68.42;101440.97;1813787;79;27426;-64
2021/08/12 04:39:34;;;;;;;17.70;6.45;;;;;;;20.56;68.21;101435.77;1781824;78;25667;-64
2021/08/12 04:42:03;;;;;;;15.78;7.03;;;;;;;20.60;67.69;101443.94;1773983;80;25713;-64
2021/08/12 04:44:30;;;;;;;13.95;6.55;;;;;;;20.59;67.32;101443.06;1790178;80;25842;-64
2021/08/12 04:46:57;;;;;;;14.70;6.30;;;;;;;20.55;67.08;101447.23;1790162;80;25893;-64
2021/08/12 04:49:24;;;;;;;20.27;7.92;;;;;;;20.48;66.92;101450.37;1818793;78;28723;-64
2021/08/12 04:51:51;;;;;;;18.32;7.03;;;;;;;20.43;67.02;101450.06;1818092;78;25679;-64
2021/08/12 04:54:18;;;;;;;15.32;5.85;;;;;;;20.40;67.08;101450.42;1818900;78;25721;-64
2021/08/12 04:56:45;;;;;;;19.20;6.87;;;;;;;20.41;67.04;101451.63;1818972;78;25667;-64
2021/08/12 04:59:13;;;;;;;11.78;5.97;;;;;;;20.39;67.20;101453.69;1818854;78;26448;-64
2021/08/12 05:01:40;;;;;;;22.77;6.60;;;;;;;20.35;66.92;101460.54;1818364;78;27432;-63
2021/08/12 05:04:08;;;;;;;18.95;7.30;;;;;;;20.35;66.88;101465.17;1818813;78;25658;-63
2021/08/12 05:06:35;;;;;;;15.83;6.90;;;;;;;20.26;66.95;101465.77;1818892;78;25754;-64
2021/08/12 05:09:03;;;;;;;16.37;6.28;;;;;;;20.25;66.97;101466.27;1818784;78;26448;-64
2021/08/12 05:11:30;;;;;;;9.70;5.97;;;;;;;20.29;66.99;101463.52;1808524;78;25753;-64
2021/08/12 05:13:57;;;;;;;21.20;6.25;;;;;;;20.39;66.71;101461.05;1759048;81;27477;-62
2021/08/12 05:16:24;;;;;;;11.45;6.20;;;;;;;20.45;66.36;101464.40;1813847;79;25773;-64
2021/08/12 05:18:52;;;;;;;15.48;6.30;;;;;;;20.53;66.29;101463.48;1813611;78;25726;-63
2021/08/12 05:21:19;;;;;;;10.75;5.45;;;;;;;20.61;66.10;101469.70;1814137;78;25792;-63
2021/08/12 05:23:46;;;;;;;12.15;5.83;;;;;;;20.61;65.58;101473.80;1818903;78;26411;-63
2021/08/12 05:26:13;;;;;;;13.22;6.12;;;;;;;20.62;65.34;101477.37;1773723;78;27470;-63
2021/08/12 05:28:40;;;;;;;14.43;5.78;;;;;;;20.61;65.03;101476.54;1786539;80;25807;-63
2021/08/12 05:31:07;;;;;;;13.72;5.50;;;;;;;20.59;64.83;101480.50;1786592;80;25710;-63
2021/08/12 05:33:34;;;;;;;13.68;6.47;;;;;;;20.56;64.49;101481.73;1788228;78;25788;-62
2021/08/12 05:36:04;;;;;;;11.90;6.03;;;;;;;20.54;64.58;101477.45;1787317;78;25788;-63
2021/08/12 05:38:31;;;;;;;12.18;5.47;;;;;;;20.49;64.45;101480.73;1781318;80;27464;-63
2021/08/12 05:40:58;;;;;;;14.68;5.85;;;;;;;20.52;64.72;101479.55;1778682;79;25770;-63
2021/08/12 05:43:26;;;;;;;16.35;6.20;;;;;;;20.56;64.71;101478.13;1798976;79;25808;-63
2021/08/12 05:45:55;;;;;;;16.40;6.83;;;;;;;20.60;64.64;101492.61;1798983;79;25745;-62
2021/08/12 05:48:22;;;;;;;18.37;5.80;;;;;;;20.62;64.50;101493.77;1767623;79;25876;-62
2021/08/12 05:50:50;;;;;;;11.85;5.62;;;;;;;20.65;64.46;101497.52;1798660;79;27429;-62
2021/08/12 05:53:20;;;;;;;11.15;5.40;;;;;;;20.75;64.47;101498.67;1798824;79;25726;-63
2021/08/12 05:55:49;;;;;;;15.72;5.85;;;;;;;20.82;64.25;101499.61;1799492;79;25759;-63
2021/08/12 05:58:16;;;;;;;18.07;5.67;;;;;;;20.87;63.71;101500.42;1767704;79;26663;-63
2021/08/12 06:00:43;;;;;;;12.63;5.25;;;;;;;20.91;63.63;101493.03;1793724;79;25984;-63
2021/08/12 06:03:13;;;;;;;8.63;4.92;;;;;;;20.94;63.47;101491.80;1766745;81;27464;-63
2021/08/12 06:05:42;;;;;;;12.25;5.12;;;;;;;20.99;63.37;101498.07;1789787;79;25865;-63
2021/08/12 06:08:15;;;;;;;14.45;5.35;;;;;;;21.01;62.92;101501.47;1798948;79;25747;-63
2021/08/12 06:10:42;;;;;;;14.83;5.87;;;;;;;21.02;62.62;101505.91;1798828;79;34825;-63
2021/08/12 06:13:09;;;;;;;13.30;5.65;;;;;;;21.04;62.64;101512.89;1798708;79;25884;-63
2021/08/12 06:15:37;;;;;;;11.57;5.42;;;;;;;21.09;62.42;101512.33;1768577;79;27180;-63
2021/08/12 06:18:14;;;;;;;13.00;5.60;;;;;;;21.21;62.43;101517.64;1768847;81;25779;-63
2021/08/12 06:20:43;;;;;;;6.90;4.83;;;;;;;21.35;61.69;101518.67;1771110;81;25817;-63
2021/08/12 06:23:12;;;;;;;7.87;5.10;;;;;;;21.50;61.58;101524.14;1770772;81;25785;-63
2021/08/12 06:25:41;;;;;;;10.55;5.92;;;;;;;21.75;61.37;101517.00;1770709;80;26384;-63
2021/08/12 06:28:10;;;;;;;10.58;6.03;;;;;;;21.94;61.42;101515.55;1770634;80;27458;-63
2021/08/12 06:30:38;;;;;;;9.83;5.25;;;;;;;22.11;61.14;101516.66;1742291;81;25973;-63
2021/08/12 06:33:06;;;;;;;7.22;4.70;;;;;;;22.22;60.68;101523.00;1770061;81;25672;-63
2021/08/12 06:35:35;;;;;;;8.95;4.67;;;;;;;22.29;60.21;101514.32;1779966;79;25831;-63
2021/08/12 06:38:07;;;;;;;13.55;5.25;;;;;;;22.41;59.89;101514.67;1822893;78;25629;-63
2021/08/12 06:40:34;;;;;;;10.18;5.35;;;;;;;22.48;59.18;101505.97;1765051;80;28015;-63
2021/08/12 06:43:02;;;;;;;11.80;5.62;;;;;;;22.47;58.53;101513.03;1756541;81;25732;-63
2021/08/12 06:45:32;;;;;;;14.03;5.35;;;;;;;22.49;58.66;101509.58;1747338;81;25867;-64
2021/08/12 06:48:05;;;;;;;9.98;5.00;;;;;;;22.49;57.63;101503.56;1751320;80;25833;-63
2021/08/12 06:50:34;;;;;;;12.47;4.90;;;;;;;22.48;57.31;101504.60;1749318;80;25787;-63
2021/08/12 06:53:00;;;;;;;10.10;5.17;;;;;;;22.43;57.51;101513.95;1750935;79;27789;-63
2021/08/12 06:55:27;;;;;;;19.52;5.85;;;;;;;22.39;57.21;101512.61;1749809;81;25825;-63
2021/08/12 06:57:55;;;;;;;13.15;5.45;;;;;;;22.35;57.28;101515.44;1750754;81;25870;-62
2021/08/12 07:00:22;;;;;;;15.55;6.12;;;;;;;22.35;57.76;101519.01;1735975;81;26535;-62
2021/08/12 07:02:52;;;;;;;11.85;5.15;;;;;;;22.38;57.87;101510.91;1759819;80;25792;-63
2021/08/12 07:05:19;;;;;;;10.10;5.35;;;;;;;22.40;57.08;101510.23;1754085;79;28626;-63
2021/08/12 07:07:50;;;;;;;11.35;5.25;;;;;;;22.49;56.88;101509.58;1751746;81;26032;-65
2021/08/12 07:10:18;;;;;;;11.57;5.33;;;;;;;22.56;56.84;101509.61;1759201;81;25857;-62
2021/08/12 07:12:45;;;;;;;11.50;4.78;;;;;;;22.66;56.62;101510.99;1761071;81;26379;-62
2021/08/12 07:15:13;;;;;;;9.23;4.62;;;;;;;22.74;56.12;101509.98;1800418;78;25851;-62
2021/08/12 07:17:40;;;;;;;10.53;4.75;;;;;;;22.82;55.33;101505.70;1810091;78;27511;-62
2021/08/12 07:20:09;;;;;;;11.28;4.50;;;;;;;22.93;54.87;101508.45;1817231;78;25817;-62
2021/08/12 07:22:37;;;;;;;7.85;4.37;;;;;;;23.00;55.01;101509.84;1785988;78;25784;-62
2021/08/12 07:25:07;;;;;;;8.63;4.25;;;;;;;23.06;54.23;101511.80;1817906;78;25852;-62
2021/08/12 07:27:34;;;;;;;7.00;4.17;;;;;;;23.14;54.27;101509.39;1806167;78;25801;-62
2021/08/12 07:30:04;;;;;;;12.53;4.20;;;;;;;23.18;54.33;101512.58;1817552;78;27445;-62
2021/08/12 07:32:31;;;;;;;15.70;3.98;;;;;;;23.23;54.03;101510.96;1817928;78;25778;-62
2021/08/12 07:34:58;;;;;;;6.70;4.20;;;;;;;23.32;53.24;101519.02;1817498;78;25728;-62
2021/08/12 07:37:26;;;;;;;8.08;4.25;;;;;;;23.39;52.18;101515.27;1817863;78;25832;-62
2021/08/12 07:39:55;;;;;;;10.20;4.20;;;;;;;23.44;52.57;101515.50;1817644;78;26467;-62
2021/08/12 07:42:22;;;;;;;12.33;4.67;;;;;;;23.47;52.38;101516.15;1814808;78;28232;-62
2021/08/12 07:44:49;;;;;;;8.03;4.42;;;;;;;23.48;52.55;101514.59;1817446;78;25766;-62
2021/08/12 07:47:16;;;;;;;10.80;4.05;;;;;;;23.59;51.77;101507.66;1789105;78;25799;-63
2021/08/12 07:49:43;;;;;;;8.88;4.05;;;;;;;23.69;51.70;101508.13;1781678;80;26420;-63
2021/08/12 07:52:10;;;;;;;7.20;4.25;;;;;;;23.79;51.67;101518.71;1811076;78;25789;-62
2021/08/12 07:54:37;;;;;;;6.53;4.00;;;;;;;23.92;50.53;101517.91;1782409;78;28224;-62
2021/08/12 07:57:07;;;;;;;7.65;3.90;;;;;;;24.03;50.16;101517.84;1765516;81;26338;-63
2021/08/12 07:59:35;;;;;;;11.05;4.58;;;;;;;24.07;51.06;101521.34;1765731;81;26017;-64
2021/08/12 08:02:02;;;;;;;17.85;4.90;;;;;;;24.20;48.78;101520.55;1766242;81;25846;-63
2021/08/12 08:04:29;;;;;;;8.73;4.17;;;;;;;24.25;49.06;101521.27;1766782;79;25941;-62
2021/08/12 08:06:59;;;;;;;11.10;4.70;;;;;;;24.23;49.39;101528.36;1766154;81;27394;-64
2021/08/12 08:09:26;;;;;;;7.15;3.35;;;;;;;24.34;49.29;101526.89;1765671;79;25972;-63
2021/08/12 08:11:53;;;;;;;10.72;3.50;;;;;;;24.44;48.95;101540.24;1765698;81;25854;-64
2021/08/12 08:14:20;;;;;;;10.55;3.92;;;;;;;24.51;49.38;101542.46;1766802;79;26513;-63
2021/08/12 08:16:48;;;;;;;10.30;4.20;;;;;;;24.53;48.13;101540.87;1766709;81;25738;-63
2021/08/12 08:19:14;;;;;;;6.05;4.15;;;;;;;24.58;48.16;101534.22;1788096;80;27468;-63
2021/08/12 08:21:41;;;;;;;11.53;4.67;;;;;;;24.67;47.93;101538.97;1791337;80;25845;-63
2021/08/12 08:24:09;;;;;;;17.00;5.20;;;;;;;24.74;48.01;101530.23;1775092;80;25843;-63
2021/08/12 08:26:36;;;;;;;7.53;5.00;;;;;;;24.88;46.88;101528.84;1824092;78;26725;-63
2021/08/12 08:29:03;;;;;;;14.83;7.03;;;;;;;25.00;46.64;101535.39;1823973;78;26205;-62
2021/08/12 08:31:29;;;;;;;16.45;4.92;;;;;;;25.07;46.29;101530.72;1821187;78;27439;-65
2021/08/12 08:33:58;;;;;;;8.43;3.10;;;;;;;25.16;46.46;101532.18;1802499;78;25904;-63
2021/08/12 08:36:26;;;;;;;7.47;3.90;;;;;;;25.27;46.27;101527.08;1823987;78;25737;-63
2021/08/12 08:38:54;;;;;;;6.70;4.33;;;;;;;25.41;46.00;101531.50;1803705;78;25798;-64
2021/08/12 08:41:22;;;;;;;13.22;5.28;;;;;;;25.51;45.59;101528.27;1782544;79;25758;-62
2021/08/12 08:43:53;;;;;;;13.60;5.03;;;;;;;25.67;44.55;101528.33;1795686;78;27445;-64
2021/08/12 08:46:21;;;;;;;10.05;3.70;;;;;;;25.79;44.94;101529.86;1787664;80;25758;-63
2021/08/12 08:48:50;;;;;;;7.35;3.75;;;;;;;25.89;44.42;101532.98;1768908;80;25846;-63
2021/08/12 08:51:18;;;;;;;7.42;3.90;;;;;;;26.02;45.28;101527.93;1769268;80;25810;-64
2021/08/12 08:53:45;;;;;;;12.30;4.37;;;;;;;26.13;44.08;101529.19;1785401;78;25731;-63
2021/08/12 08:56:12;;;;;;;12.55;3.58;;;;;;;26.28;43.52;101514.23;1791367;80;27419;-64
2021/08/12 08:58:40;;;;;;;10.63;4.00;;;;;;;26.37;43.83;101519.78;1790872;80;25822;-63
2021/08/12 09:01:07;;;;;;;7.15;4.20;;;;;;;26.50;44.04;101511.39;1791535;80;25810;-63
2021/08/12 09:03:35;;;;;;;8.63;4.12;;;;;;;26.73;43.82;101516.83;1795544;78;25847;-63
2021/08/12 09:06:02;;;;;;;5.42;4.03;;;;;;;26.95;43.15;101517.28;1791367;80;26540;-64
2021/08/12 09:08:32;;;;;;;10.25;3.87;;;;;;;27.10;42.07;101517.44;1823666;78;27483;-64
2021/08/12 09:10:59;;;;;;;6.72;3.70;;;;;;;27.34;41.89;101526.73;1791007;80;25977;-63
2021/08/12 09:13:30;;;;;;;9.03;3.80;;;;;;;27.63;40.44;101521.54;1823380;78;25744;-64
2021/08/12 09:15:57;;;;;;;7.85;3.42;;;;;;;27.77;39.92;101516.13;1791456;80;25754;-63
2021/08/12 09:18:27;;;;;;;5.97;3.62;;;;;;;27.88;40.40;101522.77;1757283;81;25725;-64
2021/08/12 09:20:59;;;;;;;5.72;3.42;;;;;;;28.09;39.78;101515.94;1785163;79;27532;-64
2021/08/12 09:23:30;;;;;;;10.48;3.98;;;;;;;28.07;39.39;101502.88;1722495;81;25961;-63
2021/08/12 09:25:58;;;;;;;5.65;3.60;;;;;;;28.16;38.91;101518.58;1780161;78;25842;-64
2021/08/12 09:28:31;;;;;;;8.95;3.35;;;;;;;28.38;38.51;101520.25;1817684;78;26464;-63
2021/08/12 09:31:03;;;;;;;10.82;3.42;;;;;;;28.60;39.15;101517.48;1817464;78;26067;-64
2021/08/12 09:33:41;;;;;;;4.47;2.95;;;;;;;28.78;38.09;101522.91;1817836;78;32987;-64
2021/08/12 09:36:26;;;;;;;8.53;4.37;;;;;;;29.21;36.72;101505.60;1817630;78;25780;-64
2021/08/12 09:39:22;;;;;;;5.42;3.45;;;;;;;29.70;36.36;101498.31;1782211;79;25788;-65
2021/08/12 09:41:53;;;;;;;10.40;3.60;;;;;;;30.33;34.40;101511.42;1766147;81;25867;-64
2021/08/12 09:44:51;;;;;;;9.53;3.15;;;;;;;30.83;33.64;101500.85;1806508;78;26320;-65
2021/08/12 09:47:28;;;;;;;8.18;3.30;;;;;;;31.31;33.95;101498.47;1809794;78;27880;-64
2021/08/12 09:49:59;;;;;;;4.50;3.08;;;;;;;31.31;31.73;101503.20;1817481;78;25958;-64
2021/08/12 09:52:35;;;;;;;7.80;2.85;;;;;;;31.62;32.47;101511.91;1817826;78;25796;-62
2021/08/12 09:55:13;;;;;;;10.48;3.02;;;;;;;32.04;30.91;101509.04;1816181;78;25951;-62
2021/08/12 09:57:48;;;;;;;10.48;2.70;;;;;;;32.53;30.09;101511.74;1817779;78;25702;-62
2021/08/12 10:00:42;;;;;;;10.68;3.08;;;;;;;32.84;29.85;101511.14;1814357;78;27544;-62
2021/08/12 10:03:30;;;;;;;4.55;2.72;;;;;;;32.29;30.03;101509.30;1817683;78;25889;-62
2021/08/12 10:06:00;;;;;;;10.70;2.85;;;;;;;31.49;30.71;101520.95;1816568;78;25749;-63
2021/08/12 10:08:43;;;;;;;8.18;3.33;;;;;;;31.41;30.52;101512.21;1807757;78;25761;-64
2021/08/12 10:11:30;;;;;;;7.87;3.12;;;;;;;31.41;30.99;101501.95;1784363;80;25939;-64
2021/08/12 10:14:04;;;;;;;6.67;3.40;;;;;;;30.81;31.27;101504.98;1785260;80;28348;-63
2021/08/12 10:16:34;;;;;;;9.25;3.67;;;;;;;31.31;31.22;101505.42;1723006;81;25760;-63
2021/08/12 10:19:06;;;;;;;3.80;2.55;;;;;;;32.05;30.44;101499.59;1759016;80;25744;-63
2021/08/12 10:21:40;;;;;;;6.12;2.85;;;;;;;32.57;30.21;101497.55;1817574;78;25783;-63
2021/08/12 10:24:08;;;;;;;45.35;4.60;;;;;;;33.13;28.33;101487.89;1790673;79;26048;-65
2021/08/12 10:26:38;;;;;;;7.17;2.98;;;;;;;33.62;26.87;101490.88;1803634;78;28358;-64
2021/08/12 10:29:13;;;;;;;9.08;2.75;;;;;;;33.59;27.00;101486.41;1816505;78;25782;-64
2021/08/12 10:31:44;;;;;;;9.43;3.17;;;;;;;32.89;28.18;101494.44;1812799;78;26179;-64
2021/08/12 10:34:14;;;;;;;9.68;2.55;;;;;;;33.09;27.65;101490.38;1817611;78;25823;-64
2021/08/12 10:36:46;;;;;;;10.23;2.60;;;;;;;33.43;27.44;101486.91;1817651;78;25725;-64
2021/08/12 10:39:14;;;;;;;8.73;2.47;;;;;;;34.10;26.06;101480.94;1817602;78;27833;-64
2021/08/12 10:41:43;;;;;;;5.45;2.83;;;;;;;34.33;25.22;101484.30;1786042;78;25791;-65
2021/08/12 10:44:10;;;;;;;8.20;2.67;;;;;;;34.52;25.85;101491.56;1817994;78;25761;-65
2021/08/12 10:46:40;;;;;;;3.30;1.87;;;;;;;34.71;24.58;101482.59;1809510;78;25871;-65
2021/08/12 10:49:34;;;;;;;12.33;2.52;;;;;;;34.87;24.43;101484.23;1804973;78;26130;-65
2021/08/12 10:52:09;;;;;;;5.62;2.10;;;;;;;34.90;24.55;101482.30;1817646;78;26004;-63
2021/08/12 10:54:42;;;;;;;3.77;2.10;;;;;;;35.16;23.86;101486.95;1816962;78;25884;-64
2021/08/12 10:57:20;;;;;;;3.10;1.67;;;;;;;35.42;23.54;101486.31;1817765;78;26058;-64
2021/08/12 10:59:51;;;;;;;9.25;2.70;;;;;;;35.67;23.54;101499.88;1802126;78;25796;-64
2021/08/12 11:02:34;;;;;;;5.03;2.05;;;;;;;36.03;22.02;101494.06;1785069;80;26540;-64
2021/08/12 11:05:06;;;;;;;8.25;2.50;;;;;;;36.26;22.87;101494.45;1785224;80;26146;-64
2021/08/12 11:07:40;;;;;;;2.45;1.77;;;;;;;36.64;21.49;101489.91;1785298;80;25836;-64
2021/08/12 11:10:12;;;;;;;7.85;2.42;;;;;;;36.83;22.35;101491.11;1782593;78;25818;-64
2021/08/12 11:12:57;;;;;;;;;;;;;;;37.22;20.71;101490.12;1781785;79;25850;-64
2021/08/12 11:15:51;;;;;;;10.05;1.90;;;;;;;36.26;20.77;101491.08;1773112;79;25838;-64
2021/08/12 11:18:18;;;;;;;4.30;1.60;;;;;;;35.71;22.03;101493.41;1779017;80;27792;-64
2021/08/12 11:20:47;;;;;;;7.12;1.87;;;;;;;36.03;21.77;101487.91;1808561;78;25710;-64
2021/08/12 11:23:26;;;;;;;7.00;2.40;;;;;;;34.92;22.76;101487.60;1799657;79;25818;-64
2021/08/12 11:26:08;;;;;;;15.68;2.42;;;;;;;33.71;23.73;101496.75;1812416;79;26162;-64
2021/08/12 11:28:46;;;;;;;9.68;2.22;;;;;;;34.05;23.63;101486.53;1812801;78;25774;-64
2021/08/12 11:31:28;;;;;;;8.73;1.90;;;;;;;34.41;23.25;101494.08;1816448;78;27523;-65
2021/08/12 11:34:02;;;;;;;10.32;2.58;;;;;;;33.46;23.87;101496.96;1817757;78;25746;-64